createdAt,value
2023-01-03T00:02:15.683Z,13.50
2023-01-03T00:04:49.706Z,14.04
2023-01-03T00:07:34.317Z,12.75
2023-01-03T00:10:07.457Z,12.49
2023-01-03T00:12:38.414Z,12.84
2023-01-03T00:15:10.532Z,13.31
2023-01-03T00:17:41.256Z,13.55
2023-01-03T00:20:12.824Z,13.93
2023-01-03T00:22:43.642Z,13.55
2023-01-03T00:25:15.816Z,12.39
2023-01-03T00:27:47.628Z,12.82
2023-01-03T00:30:18.443Z,13.54
2023-01-03T00:32:49.234Z,13.68
2023-01-03T00:35:20.171Z,13.87
2023-01-03T00:37:52.033Z,12.54
2023-01-03T00:40:22.970Z,11.62
2023-01-03T00:43:11.225Z,12.20
2023-01-03T00:45:42.070Z,12.72
2023-01-03T00:48:12.993Z,12.81
2023-01-03T00:50:44.041Z,12.90
2023-01-03T00:53:14.763Z,13.13
2023-01-03T00:55:45.956Z,13.33
2023-01-03T00:58:16.899Z,13.39
2023-01-03T01:00:47.685Z,13.73
2023-01-03T01:03:18.454Z,13.39
2023-01-03T01:05:49.755Z,11.68
2023-01-03T01:08:20.388Z,11.62
2023-01-03T01:11:03.247Z,12.13
2023-01-03T01:13:35.212Z,12.61
2023-01-03T01:16:07.105Z,12.62
2023-01-03T01:18:38.232Z,12.37
2023-01-03T01:21:10.597Z,12.64
2023-01-03T01:23:42.197Z,12.73
2023-01-03T01:26:14.443Z,12.76
2023-01-03T01:28:45.478Z,12.86
2023-01-03T01:31:17.786Z,13.02
2023-01-03T01:33:48.427Z,13.07
2023-01-03T01:36:21.810Z,13.09
2023-01-03T01:38:50.891Z,13.25
2023-01-03T01:41:43.026Z,13.24
2023-01-03T01:44:39.158Z,13.24
2023-01-03T01:47:12.840Z,13.19
2023-01-03T01:49:44.000Z,13.84
2023-01-03T01:52:15.426Z,12.70
2023-01-03T01:54:46.391Z,11.46
2023-01-03T01:57:18.594Z,11.88
2023-01-03T01:59:49.391Z,12.43
2023-01-03T02:02:22.015Z,12.96
2023-01-03T02:04:54.424Z,13.22
2023-01-03T02:07:25.086Z,13.05
2023-01-03T02:09:56.960Z,13.15
2023-01-03T02:12:47.937Z,13.26
2023-01-03T02:15:29.534Z,13.22
2023-01-03T02:18:06.117Z,13.26
2023-01-03T02:20:45.401Z,13.21
2023-01-03T02:23:35.927Z,13.58
2023-01-03T02:26:25.954Z,13.60
2023-01-03T02:29:18.971Z,13.66
2023-01-03T02:31:51.866Z,12.20
2023-01-03T02:34:28.741Z,11.94
2023-01-03T02:37:03.037Z,12.34
2023-01-03T02:39:40.818Z,12.89
2023-01-03T02:42:33.087Z,13.16
2023-01-03T02:45:08.342Z,13.64
2023-01-03T02:47:42.951Z,12.66
2023-01-03T02:50:14.401Z,11.39
2023-01-03T02:52:45.850Z,11.70
2023-01-03T02:55:19.054Z,12.20
2023-01-03T02:57:51.468Z,12.76
2023-01-03T03:00:23.919Z,13.29
2023-01-03T03:02:57.446Z,13.12
2023-01-03T03:05:30.116Z,13.11
2023-01-03T03:08:00.687Z,13.02
2023-01-03T03:10:49.669Z,13.09
2023-01-03T03:13:24.220Z,13.01
2023-01-03T03:15:57.647Z,12.97
2023-01-03T03:18:26.676Z,12.83
2023-01-03T03:21:16.522Z,12.87
2023-01-03T03:24:05.718Z,13.06
2023-01-03T03:26:38.690Z,13.17
2023-01-03T03:29:12.199Z,13.21
2023-01-03T03:31:41.335Z,13.21
2023-01-03T03:34:15.059Z,13.16
2023-01-03T03:36:47.941Z,13.01
2023-01-03T03:39:36.740Z,13.03
2023-01-03T03:42:31.736Z,12.99
2023-01-03T03:45:04.064Z,13.31
2023-01-03T03:47:39.604Z,13.48
2023-01-03T03:50:12.917Z,11.94
2023-01-03T03:52:46.565Z,10.82
2023-01-03T03:55:18.511Z,11.36
2023-01-03T03:57:52.720Z,12.01
2023-01-03T04:00:25.612Z,12.62
2023-01-03T04:02:57.387Z,12.78
2023-01-03T04:05:30.769Z,13.09
2023-01-03T04:08:01.691Z,13.36
2023-01-03T04:10:37.403Z,13.10
2023-01-03T04:13:09.112Z,11.51
2023-01-03T04:15:40.012Z,11.35
2023-01-03T04:18:10.670Z,12.01
2023-01-03T04:20:41.273Z,12.54
2023-01-03T04:23:11.934Z,12.93
2023-01-03T04:25:43.398Z,13.19
2023-01-03T04:28:14.118Z,13.45
2023-01-03T04:30:45.810Z,13.71
2023-01-03T04:33:17.665Z,13.88
2023-01-03T04:35:49.739Z,13.46
2023-01-03T04:38:20.427Z,12.15
2023-01-03T04:40:51.274Z,11.33
2023-01-03T04:43:39.911Z,12.06
2023-01-03T04:46:10.605Z,13.18
2023-01-03T04:48:41.689Z,13.50
2023-01-03T04:51:12.432Z,13.69
2023-01-03T04:53:43.163Z,13.78
2023-01-03T04:56:13.694Z,13.92
2023-01-03T04:58:44.413Z,14.03
2023-01-03T05:01:15.248Z,14.00
2023-01-03T05:03:45.984Z,12.92
2023-01-03T05:06:17.532Z,11.95
2023-01-03T05:08:48.589Z,12.45
2023-01-03T05:11:19.196Z,13.19
2023-01-03T05:13:50.017Z,13.68
2023-01-03T05:16:22.567Z,13.94
2023-01-03T05:18:53.761Z,14.14
2023-01-03T05:21:42.115Z,14.32
2023-01-03T05:24:30.993Z,13.70
2023-01-03T05:27:02.715Z,12.25
2023-01-03T05:29:36.573Z,11.77
2023-01-03T05:32:07.603Z,12.50
2023-01-03T05:34:38.127Z,13.09
2023-01-03T05:37:09.447Z,13.53
2023-01-03T05:39:40.188Z,13.83
2023-01-03T05:42:10.913Z,14.00
2023-01-03T05:44:41.438Z,14.25
2023-01-03T05:47:12.080Z,13.04
2023-01-03T05:49:42.935Z,11.92
2023-01-03T05:52:13.669Z,12.34
2023-01-03T05:54:44.264Z,12.93
2023-01-03T05:57:15.306Z,14.02
2023-01-03T05:59:46.143Z,13.36
2023-01-03T06:02:17.833Z,12.29
2023-01-03T06:04:48.690Z,12.84
2023-01-03T06:07:19.478Z,13.18
2023-01-03T06:09:50.102Z,13.83
2023-01-03T06:12:20.753Z,13.53
2023-01-03T06:14:51.463Z,12.40
2023-01-03T06:17:39.918Z,12.71
2023-01-03T06:20:11.276Z,13.19
2023-01-03T06:22:42.191Z,13.48
2023-01-03T06:25:13.233Z,13.64
2023-01-03T06:27:44.283Z,13.99
2023-01-03T06:30:16.407Z,13.38
2023-01-03T06:32:47.086Z,12.35
2023-01-03T06:35:18.013Z,12.78
2023-01-03T06:37:50.081Z,13.13
2023-01-03T06:40:20.804Z,13.53
2023-01-03T06:42:51.741Z,13.64
2023-01-03T06:45:40.211Z,13.72
2023-01-03T06:48:31.620Z,13.78
2023-01-03T06:51:28.051Z,13.70
2023-01-03T06:53:58.627Z,13.77
2023-01-03T06:56:29.141Z,13.78
2023-01-03T06:59:00.348Z,13.79
2023-01-03T07:01:30.921Z,13.82
2023-01-03T07:04:02.895Z,13.85
2023-01-03T07:06:33.689Z,14.02
2023-01-03T07:09:04.623Z,13.71
2023-01-03T07:11:35.908Z,12.44
2023-01-03T07:14:06.795Z,11.95
2023-01-03T07:16:38.606Z,12.41
2023-01-03T07:19:11.743Z,13.44
2023-01-03T07:21:42.479Z,13.79
2023-01-03T07:24:14.701Z,13.83
2023-01-03T07:26:45.527Z,13.46
2023-01-03T07:29:16.826Z,14.01
2023-01-03T07:31:47.994Z,13.00
2023-01-03T07:34:19.937Z,12.00
2023-01-03T07:36:50.495Z,12.69
2023-01-03T07:39:21.157Z,12.85
2023-01-03T07:42:09.591Z,13.25
2023-01-03T07:44:40.131Z,13.01
2023-01-03T07:47:10.649Z,13.40
2023-01-03T07:49:41.735Z,13.76
2023-01-03T07:52:12.615Z,13.75
2023-01-03T07:54:43.624Z,13.75
2023-01-03T07:57:16.132Z,13.64
2023-01-03T07:59:46.820Z,13.74
2023-01-03T08:02:17.681Z,13.79
2023-01-03T08:04:48.621Z,12.40
2023-01-03T08:07:19.324Z,12.63
2023-01-03T08:10:07.879Z,13.80
2023-01-03T08:12:56.286Z,13.32
2023-01-03T08:15:27.261Z,12.47
2023-01-03T08:17:58.304Z,12.73
2023-01-03T08:20:29.240Z,13.54
2023-01-03T08:23:01.923Z,13.99
2023-01-03T08:25:32.622Z,12.88
2023-01-03T08:28:03.693Z,12.49
2023-01-03T08:30:34.531Z,12.71
2023-01-03T08:33:05.990Z,12.66
2023-01-03T08:35:38.095Z,13.06
2023-01-03T08:38:11.082Z,13.58
2023-01-03T08:40:42.880Z,13.79
2023-01-03T08:43:15.773Z,13.53
2023-01-03T08:45:48.409Z,13.96
2023-01-03T08:48:21.679Z,14.02
2023-01-03T08:50:52.628Z,14.10
2023-01-03T08:53:24.654Z,14.43
2023-01-03T08:55:55.585Z,13.67
2023-01-03T08:58:26.326Z,13.08
2023-01-03T09:00:57.146Z,13.58
2023-01-03T09:03:27.961Z,13.92
2023-01-03T09:06:00.362Z,14.47
2023-01-03T09:08:33.133Z,13.72
2023-01-03T09:11:07.500Z,12.66
2023-01-03T09:13:38.355Z,13.21
2023-01-03T09:16:10.492Z,13.69
2023-01-03T09:18:42.246Z,14.47
2023-01-03T09:21:13.048Z,14.55
2023-01-03T09:23:43.680Z,13.12
2023-01-03T09:26:14.659Z,13.86
2023-01-03T09:28:45.469Z,14.62
2023-01-03T09:31:16.624Z,13.96
2023-01-03T09:33:47.832Z,13.63
2023-01-03T09:36:18.587Z,14.71
2023-01-03T09:38:49.301Z,13.74
2023-01-03T09:41:23.107Z,13.52
2023-01-03T09:43:57.424Z,14.67
2023-01-03T09:46:29.435Z,14.79
2023-01-03T09:49:00.835Z,13.61
2023-01-03T09:51:50.317Z,14.01
2023-01-03T09:54:57.594Z,14.84
2023-01-03T09:57:47.141Z,13.54
2023-01-03T10:00:37.503Z,13.29
2023-01-03T10:03:35.665Z,14.88
2023-01-03T10:06:13.342Z,14.50
2023-01-03T10:08:49.428Z,13.29
2023-01-03T10:11:23.083Z,13.93
2023-01-03T10:13:59.368Z,14.54
2023-01-03T10:16:36.241Z,14.50
2023-01-03T10:19:15.741Z,13.31
2023-01-03T10:21:50.807Z,13.79
2023-01-03T10:24:23.796Z,14.75
2023-01-03T10:26:55.699Z,15.03
2023-01-03T10:29:26.385Z,13.63
2023-01-03T10:32:08.750Z,12.98
2023-01-03T10:34:40.357Z,14.72
2023-01-03T10:37:17.079Z,13.90
2023-01-03T10:39:47.765Z,12.87
2023-01-03T10:42:20.159Z,13.65
2023-01-03T10:45:01.060Z,14.11
2023-01-03T10:47:32.170Z,13.13
2023-01-03T10:50:03.544Z,13.66
2023-01-03T10:52:35.894Z,14.53
2023-01-03T10:55:13.265Z,14.84
2023-01-03T10:57:46.593Z,13.42
2023-01-03T11:00:25.242Z,13.32
2023-01-03T11:02:56.871Z,14.80
2023-01-03T11:05:28.311Z,14.20
2023-01-03T11:07:59.896Z,13.36
2023-01-03T11:10:34.990Z,14.04
2023-01-03T11:13:17.687Z,13.92
2023-01-03T11:15:54.031Z,13.10
2023-01-03T11:18:27.069Z,14.36
2023-01-03T11:21:02.352Z,14.69
2023-01-03T11:23:41.085Z,13.52
2023-01-03T11:26:16.407Z,13.47
2023-01-03T11:29:05.374Z,14.45
2023-01-03T11:31:40.706Z,13.42
2023-01-03T11:34:20.991Z,12.74
2023-01-03T11:36:55.225Z,13.82
2023-01-03T11:39:40.337Z,14.44
2023-01-03T11:42:20.629Z,14.66
2023-01-03T11:44:59.465Z,14.07
2023-01-03T11:47:33.493Z,13.07
2023-01-03T11:50:15.479Z,14.20
2023-01-03T11:52:48.643Z,14.64
2023-01-03T11:55:38.775Z,13.24
2023-01-03T11:58:22.003Z,12.98
2023-01-03T12:00:56.475Z,13.96
2023-01-03T12:03:32.651Z,13.83
2023-01-03T12:06:05.797Z,12.94
2023-01-03T12:08:52.839Z,12.62
2023-01-03T12:11:32.763Z,14.29
2023-01-03T12:14:06.055Z,13.88
2023-01-03T12:16:39.223Z,12.66
2023-01-03T12:19:12.317Z,13.79
2023-01-03T12:21:45.135Z,14.12
2023-01-03T12:24:17.131Z,12.83
2023-01-03T12:26:52.497Z,13.66
2023-01-03T12:29:26.223Z,14.35
2023-01-03T12:32:00.158Z,12.87
2023-01-03T12:34:33.875Z,13.96
2023-01-03T12:37:10.159Z,13.61
2023-01-03T12:39:43.764Z,13.11
2023-01-03T12:42:21.272Z,14.38
2023-01-03T12:44:56.482Z,13.48
2023-01-03T12:47:30.562Z,13.09
2023-01-03T12:50:04.191Z,13.95
2023-01-03T12:52:36.495Z,14.34
2023-01-03T12:55:09.607Z,13.37
2023-01-03T12:57:49.794Z,13.13
2023-01-03T13:00:23.856Z,14.29
2023-01-03T13:02:56.800Z,12.99
2023-01-03T13:05:32.013Z,13.21
2023-01-03T13:08:07.413Z,14.48
2023-01-03T13:10:39.523Z,13.70
2023-01-03T13:13:15.343Z,12.75
2023-01-03T13:15:46.742Z,13.84
2023-01-03T13:18:34.055Z,14.20
2023-01-03T13:21:24.525Z,13.04
2023-01-03T13:24:01.715Z,13.12
2023-01-03T13:26:32.251Z,14.02
2023-01-03T13:29:20.699Z,14.96
2023-01-03T13:32:04.950Z,13.78
2023-01-03T13:34:36.458Z,12.79
2023-01-03T13:37:21.793Z,13.78
2023-01-03T13:40:04.126Z,13.25
2023-01-03T13:42:38.752Z,12.68
2023-01-03T13:45:25.599Z,13.87
2023-01-03T13:47:56.815Z,14.19
2023-01-03T13:50:28.985Z,13.01
2023-01-03T13:53:01.294Z,12.88
2023-01-03T13:55:36.225Z,13.77
2023-01-03T13:58:27.504Z,12.88
2023-01-03T14:01:05.497Z,13.18
2023-01-03T14:03:46.756Z,14.01
2023-01-03T14:06:31.899Z,13.10
2023-01-03T14:09:19.732Z,12.72
2023-01-03T14:12:04.397Z,13.89
2023-01-03T14:14:37.690Z,13.60
2023-01-03T14:17:15.143Z,12.65
2023-01-03T14:19:51.127Z,12.88
2023-01-03T14:22:31.553Z,13.91
2023-01-03T14:25:02.762Z,13.99
2023-01-03T14:27:37.586Z,12.88
2023-01-03T14:30:20.150Z,12.72
2023-01-03T14:32:51.168Z,13.83
2023-01-03T14:35:34.795Z,14.38
2023-01-03T14:38:07.253Z,13.02
2023-01-03T14:40:38.156Z,12.63
2023-01-03T14:43:19.279Z,13.22
2023-01-03T14:45:53.674Z,14.31
2023-01-03T14:48:25.157Z,13.69
2023-01-03T14:50:56.465Z,12.41
2023-01-03T14:53:27.968Z,12.98
2023-01-03T14:55:58.850Z,13.85
2023-01-03T14:58:35.138Z,13.63
2023-01-03T15:01:07.289Z,12.49
2023-01-03T15:03:39.575Z,13.54
2023-01-03T15:06:21.860Z,13.93
2023-01-03T15:08:54.100Z,12.50
2023-01-03T15:11:28.328Z,12.84
2023-01-03T15:14:03.471Z,13.54
2023-01-03T15:16:35.877Z,13.60
2023-01-03T15:19:08.673Z,12.59
2023-01-03T15:21:39.444Z,12.62
2023-01-03T15:24:14.837Z,13.90
2023-01-03T15:26:47.312Z,13.49
2023-01-03T15:29:19.446Z,12.66
2023-01-03T15:31:52.465Z,13.42
2023-01-03T15:34:27.036Z,14.03
2023-01-03T15:36:59.005Z,12.87
2023-01-03T15:39:31.781Z,12.53
2023-01-03T15:42:44.147Z,13.15
2023-01-03T15:45:13.745Z,14.02
2023-01-03T15:47:44.654Z,14.11
2023-01-03T15:50:19.058Z,13.00
2023-01-03T15:52:50.420Z,12.17
2023-01-03T15:55:21.361Z,12.90
2023-01-03T15:57:54.120Z,13.85
2023-01-03T16:00:26.408Z,13.49
2023-01-03T16:02:57.163Z,12.30
2023-01-03T16:05:28.518Z,11.75
2023-01-03T16:07:59.311Z,12.62
2023-01-03T16:10:30.082Z,13.51
2023-01-03T16:13:00.640Z,14.09
2023-01-03T16:15:31.712Z,14.19
2023-01-03T16:18:02.508Z,13.16
2023-01-03T16:20:33.483Z,12.13
2023-01-03T16:23:04.209Z,11.67
2023-01-03T16:25:35.280Z,12.63
2023-01-03T16:28:12.029Z,13.53
2023-01-03T16:30:43.736Z,13.93
2023-01-03T16:33:19.733Z,13.28
2023-01-03T16:35:50.781Z,12.08
2023-01-03T16:38:25.762Z,11.51
2023-01-03T16:40:56.886Z,12.37
2023-01-03T16:43:28.311Z,13.27
2023-01-03T16:46:00.861Z,13.76
2023-01-03T16:48:37.923Z,12.90
2023-01-03T16:51:08.806Z,11.71
2023-01-03T16:53:41.377Z,11.41
2023-01-03T16:56:12.930Z,12.38
2023-01-03T16:58:43.560Z,13.28
2023-01-03T17:01:14.774Z,13.55
2023-01-03T17:03:45.499Z,12.60
2023-01-03T17:06:23.807Z,11.59
2023-01-03T17:08:55.728Z,10.82
2023-01-03T17:11:26.988Z,10.60
2023-01-03T17:14:00.249Z,11.65
2023-01-03T17:16:32.743Z,12.71
2023-01-03T17:19:03.351Z,13.37
2023-01-03T17:21:35.468Z,13.43
2023-01-03T17:24:07.929Z,12.37
2023-01-03T17:26:38.827Z,11.39
2023-01-03T17:29:13.250Z,11.53
2023-01-03T17:31:44.497Z,12.41
2023-01-03T17:34:22.292Z,13.08
2023-01-03T17:36:53.375Z,11.99
2023-01-03T17:39:24.162Z,10.85
2023-01-03T17:42:13.140Z,10.51
2023-01-03T17:45:04.911Z,11.71
2023-01-03T17:47:54.527Z,12.56
2023-01-03T17:50:25.266Z,12.87
2023-01-03T17:52:56.747Z,13.06
2023-01-03T17:55:28.679Z,13.07
2023-01-03T17:58:01.967Z,12.09
2023-01-03T18:00:32.812Z,11.05
2023-01-03T18:03:04.162Z,10.44
2023-01-03T18:05:35.082Z,11.16
2023-01-03T18:08:06.181Z,11.90
2023-01-03T18:10:45.728Z,12.52
2023-01-03T18:13:21.913Z,12.68
2023-01-03T18:15:52.978Z,11.41
2023-01-03T18:18:24.677Z,10.26
2023-01-03T18:20:55.842Z,10.01
2023-01-03T18:23:28.792Z,10.99
2023-01-03T18:26:01.166Z,11.71
2023-01-03T18:28:31.970Z,12.20
2023-01-03T18:31:03.143Z,12.52
2023-01-03T18:33:34.051Z,12.80
2023-01-03T18:36:04.834Z,12.84
2023-01-03T18:38:36.740Z,12.79
2023-01-03T18:41:07.376Z,11.60
2023-01-03T18:43:38.623Z,10.52
2023-01-03T18:46:12.936Z,10.81
2023-01-03T18:48:43.710Z,11.60
2023-01-03T18:51:16.570Z,12.14
2023-01-03T18:53:53.586Z,12.86
2023-01-03T18:56:29.050Z,12.36
2023-01-03T18:59:02.613Z,10.64
2023-01-03T19:01:33.787Z,10.43
2023-01-03T19:04:05.192Z,11.31
2023-01-03T19:06:36.196Z,11.40
2023-01-03T19:09:07.701Z,12.07
2023-01-03T19:11:39.061Z,12.51
2023-01-03T19:14:11.370Z,11.27
2023-01-03T19:16:42.357Z,10.26
2023-01-03T19:19:13.419Z,11.06
2023-01-03T19:21:45.714Z,11.66
2023-01-03T19:24:20.285Z,12.13
2023-01-03T19:26:53.443Z,12.28
2023-01-03T19:29:25.592Z,11.14
2023-01-03T19:31:57.879Z,10.29
2023-01-03T19:34:29.064Z,10.81
2023-01-03T19:37:00.316Z,11.73
2023-01-03T19:39:37.047Z,12.33
2023-01-03T19:42:26.807Z,12.32
2023-01-03T19:44:59.637Z,11.07
2023-01-03T19:47:30.217Z,10.37
2023-01-03T19:50:06.343Z,11.04
2023-01-03T19:52:40.303Z,11.76
2023-01-03T19:55:12.717Z,12.30
2023-01-03T19:57:44.280Z,11.76
2023-01-03T20:00:24.720Z,10.60
2023-01-03T20:02:57.148Z,10.69
2023-01-03T20:05:30.742Z,11.31
2023-01-03T20:08:05.822Z,11.94
2023-01-03T20:10:41.764Z,12.14
2023-01-03T20:13:15.743Z,11.08
2023-01-03T20:15:47.247Z,10.25
2023-01-03T20:18:24.246Z,10.87
2023-01-03T20:20:56.243Z,11.54
2023-01-03T20:23:28.254Z,11.87
2023-01-03T20:25:59.341Z,12.42
2023-01-03T20:28:31.218Z,12.29
2023-01-03T20:31:03.192Z,11.06
2023-01-03T20:33:34.042Z,10.30
2023-01-03T20:36:14.436Z,10.89
2023-01-03T20:38:46.630Z,11.70
2023-01-03T20:41:19.145Z,12.20
2023-01-03T20:43:50.458Z,11.60
2023-01-03T20:46:22.481Z,10.33
2023-01-03T20:48:56.346Z,10.19
2023-01-03T20:51:27.278Z,10.96
2023-01-03T20:53:58.305Z,11.61
2023-01-03T20:56:29.990Z,12.13
2023-01-03T20:59:00.581Z,12.52
2023-01-03T21:01:32.449Z,11.82
2023-01-03T21:04:03.286Z,10.52
2023-01-03T21:06:34.619Z,9.53
2023-01-03T21:09:06.174Z,9.19
2023-01-03T21:11:37.259Z,10.16
2023-01-03T21:14:08.253Z,11.12
2023-01-03T21:16:42.102Z,12.08
2023-01-03T21:19:16.006Z,11.46
2023-01-03T21:21:47.803Z,9.93
2023-01-03T21:24:19.500Z,9.54
2023-01-03T21:26:50.436Z,10.35
2023-01-03T21:29:22.300Z,11.34
2023-01-03T21:31:53.117Z,11.81
2023-01-03T21:34:24.016Z,11.93
2023-01-03T21:36:55.156Z,12.01
2023-01-03T21:39:25.880Z,10.79
2023-01-03T21:42:14.164Z,9.77
2023-01-03T21:44:44.803Z,10.32
2023-01-03T21:47:15.852Z,11.19
2023-01-03T21:49:46.580Z,11.75
2023-01-03T21:52:17.369Z,11.87
2023-01-03T21:54:47.940Z,10.67
2023-01-03T21:57:23.104Z,9.64
2023-01-03T21:59:54.270Z,10.25
2023-01-03T22:02:42.963Z,11.10
2023-01-03T22:05:14.012Z,11.66
2023-01-03T22:07:44.736Z,12.00
2023-01-03T22:10:19.350Z,12.09
2023-01-03T22:12:51.022Z,11.07
2023-01-03T22:15:21.626Z,9.98
2023-01-03T22:17:52.639Z,10.40
2023-01-03T22:20:24.335Z,11.53
2023-01-03T22:22:55.263Z,11.09
2023-01-03T22:25:26.122Z,9.70
2023-01-03T22:27:57.544Z,9.89
2023-01-03T22:30:28.045Z,10.75
2023-01-03T22:32:59.757Z,11.14
2023-01-03T22:35:30.232Z,11.48
2023-01-03T22:38:01.119Z,11.78
2023-01-03T22:40:32.268Z,11.81
2023-01-03T22:43:03.204Z,10.61
2023-01-03T22:45:33.775Z,9.52
2023-01-03T22:48:04.934Z,9.55
2023-01-03T22:50:35.548Z,10.95
2023-01-03T22:53:06.441Z,11.45
2023-01-03T22:55:36.935Z,10.12
2023-01-03T22:58:07.808Z,9.60
2023-01-03T23:00:38.304Z,10.38
2023-01-03T23:03:09.588Z,11.06
2023-01-03T23:05:40.109Z,11.63
2023-01-03T23:08:11.087Z,11.21
2023-01-03T23:10:41.772Z,9.82
2023-01-03T23:13:12.928Z,9.85
2023-01-03T23:15:43.553Z,10.53
2023-01-03T23:18:15.055Z,11.09
2023-01-03T23:20:49.174Z,11.52
2023-01-03T23:23:19.887Z,11.37
2023-01-03T23:25:50.696Z,10.21
2023-01-03T23:28:21.621Z,9.05
2023-01-03T23:30:52.292Z,8.53
2023-01-03T23:33:23.699Z,9.45
2023-01-03T23:41:45.886Z,11.17
2023-01-03T23:44:16.390Z,9.88
2023-01-03T23:46:47.232Z,8.63
2023-01-03T23:49:18.196Z,9.00
2023-01-03T23:51:49.223Z,10.01
2023-01-03T23:54:19.837Z,10.42
2023-01-03T23:56:50.985Z,10.62
2023-01-03T23:59:21.563Z,10.86
